CSCL Oceania — VRBI2 — position and weather

sailwx.info

Track history (hours):
 
Tides and Currents Weather Stations Pressure Air Temp Water Temp Dewpoint Dewpoint Depression Visibility Wind Speed Wind Dir Waves Ship Positions

CSCL Oceania

Last reported at 2016-Sep-19 03:34 UTC. Time now 2016-Sep-27 13:52 UTC.
Position N 48°31' W 126°06'.
Warning: this ship's position is 8 days out of date.

Length 334 m; beam 42.8 m; draft 14.5 m.

Type: Cargo ship. MMSI: 477020300.

Date/timePositionNaut miles runAvg speedWind from/ knotsBaromVisibWave heightAir tempDewpointWater temp
2016-Sep-19 03:34N 48°31' W 126°06'1514.8
2016-Sep-19 02:33N 48°31' W 125°43'2914.7
2016-Sep-19 00:33N 48°31' W 124°59'7114.2
2016-Sep-18 19:33N 48°10' W 123°17'5212.9
2016-Sep-18 15:33N 47°35' W 122°21'0 0.1
2016-Sep-18 14:33N 47°35' W 122°21'0 0.0
2016-Sep-18 10:33N 47°35' W 122°21'0 0.0
2016-Sep-18 09:28N 47°35' W 122°21'0 0.0
2016-Sep-18 02:33N 47°35' W 122°21'0 0.0
2016-Sep-18 01:33N 47°35' W 122°21'0 0.0
2016-Sep-18 00:33N 47°35' W 122°21'0 0.0
2016-Sep-17 22:33N 47°35' W 122°21'0 0.0
2016-Sep-17 21:33N 47°35' W 122°21'0 0.0
2016-Sep-17 20:33N 47°35' W 122°21'0 0.0
2016-Sep-17 19:16N 47°35' W 122°21'0 0.0
2016-Sep-17 13:33N 47°35' W 122°21'0 0.0
2016-Sep-17 12:33N 47°35' W 122°21'0 0.0
2016-Sep-17 10:33N 47°35' W 122°21'0 0.0
2016-Sep-17 09:33N 47°35' W 122°21'0 0.0
2016-Sep-17 08:33N 47°35' W 122°21'0 0.0
2016-Sep-17 07:33N 47°35' W 122°21'0 0.0
2016-Sep-17 05:33N 47°35' W 122°21'0 0.0
2016-Sep-17 04:33N 47°35' W 122°21'0 0.0
2016-Sep-17 00:33N 47°35' W 122°21'0 0.0
2016-Sep-16 17:33N 47°35' W 122°21'0 0.0
2016-Sep-16 15:33N 47°35' W 122°21'0 0.0
2016-Sep-16 12:33N 47°35' W 122°21'0 0.0
2016-Sep-16 09:28N 47°35' W 122°21'0 0.0
2016-Sep-16 07:33N 47°35' W 122°21'0 0.0
2016-Sep-16 03:33N 47°35' W 122°21'1 0.5
2016-Sep-16 02:34N 47°35' W 122°21'2110.7
2016-Sep-16 00:33N 47°56' W 122°31'3215.9
2016-Sep-15 22:33N 48°11' W 123°12'1212.0
2016-Sep-15 21:34N 48°16' W 123°29'1212.0
2016-Sep-15 20:34N 48°24' W 123°15'2914.6
2016-Sep-15 18:34N 48°53' W 123°07'25 4.1
2016-Sep-15 12:31N 49°17' W 123°05'0 0.0
2016-Sep-15 11:31N 49°17' W 123°05'0 0.0
2016-Sep-15 04:31N 49°17' W 123°05'0 0.0
2016-Sep-15 03:31N 49°17' W 123°05'0 0.0
2016-Sep-15 01:31N 49°17' W 123°05'0 0.0
2016-Sep-14 22:31N 49°17' W 123°05'0 0.0
2016-Sep-14 21:31N 49°17' W 123°05'0 0.0
2016-Sep-14 17:31N 49°17' W 123°05'0 0.0
2016-Sep-14 16:32N 49°17' W 123°05'0 0.0
2016-Sep-14 13:31N 49°17' W 123°05'0 0.0
2016-Sep-14 12:31N 49°17' W 123°05'0 0.0
2016-Sep-14 10:31N 49°17' W 123°05'0 0.0
2016-Sep-14 09:31N 49°17' W 123°05'0 0.0
2016-Sep-14 08:28N 49°17' W 123°05'0 0.0
2016-Sep-14 07:31N 49°17' W 123°05'0 0.0
2016-Sep-14 06:31N 49°17' W 123°05'0 0.0
2016-Sep-14 03:31N 49°17' W 123°05'0 0.0
2016-Sep-13 22:31N 49°17' W 123°05'0 0.0
2016-Sep-13 20:31N 49°17' W 123°05'0 0.0
2016-Sep-13 18:32N 49°17' W 123°05'0 0.0
2016-Sep-13 17:32N 49°17' W 123°05'0 0.0
2016-Sep-13 16:31N 49°17' W 123°05'0 0.0
2016-Sep-13 11:31N 49°17' W 123°05'0 0.0
2016-Sep-13 09:31N 49°17' W 123°05'0 0.0
2016-Sep-13 07:31N 49°17' W 123°05'0 0.0
2016-Sep-13 06:28N 49°17' W 123°05'3 1.7
2016-Sep-13 04:33N 49°19' W 123°09'2713.3
2016-Sep-13 02:33N 48°53' W 123°04'4013.2
2016-Sep-12 23:33N 48°16' W 123°26'3216.1
2016-Sep-12 21:33N 48°20' W 124°15'3316.5
2016-Sep-12 19:33N 48°29' W 125°02'8015.9
2016-Sep-12 14:33N 48°29' W 127°03'1717.2
2016-Sep-12 13:33N 48°29' W 127°29'1717.1
2016-Sep-12 12:33N 48°29' W 127°54'1817.3
2016-Sep-12 11:32N 48°29' W 128°21'2517.7
2016-Sep-12 10:08N 48°29' W 128°58'  
Track history (hours):
 
Tides and Currents Weather Stations Pressure Air Temp Water Temp Dewpoint Dewpoint Depression Visibility Wind Speed Wind Dir Waves Ship Positions

CSCL Oceania

Last reported at 2016-Sep-19 03:34 UTC. Time now 2016-Sep-27 13:52 UTC.
Position N 48°31' W 126°06'.
Warning: this ship's position is 8 days out of date.

Length 334 m; beam 42.8 m; draft 14.5 m.

Type: Cargo ship. MMSI: 477020300.

Date/timePositionNaut miles runAvg speedWind from/ knotsBaromVisibWave heightAir tempDewpointWater temp
2016-Sep-19 03:34N 48°31' W 126°06'1514.8
2016-Sep-19 02:33N 48°31' W 125°43'2914.7
2016-Sep-19 00:33N 48°31' W 124°59'7114.2
2016-Sep-18 19:33N 48°10' W 123°17'5212.9
2016-Sep-18 15:33N 47°35' W 122°21'0 0.1
2016-Sep-18 14:33N 47°35' W 122°21'0 0.0
2016-Sep-18 10:33N 47°35' W 122°21'0 0.0
2016-Sep-18 09:28N 47°35' W 122°21'0 0.0
2016-Sep-18 02:33N 47°35' W 122°21'0 0.0
2016-Sep-18 01:33N 47°35' W 122°21'0 0.0
2016-Sep-18 00:33N 47°35' W 122°21'0 0.0
2016-Sep-17 22:33N 47°35' W 122°21'0 0.0
2016-Sep-17 21:33N 47°35' W 122°21'0 0.0
2016-Sep-17 20:33N 47°35' W 122°21'0 0.0
2016-Sep-17 19:16N 47°35' W 122°21'0 0.0
2016-Sep-17 13:33N 47°35' W 122°21'0 0.0
2016-Sep-17 12:33N 47°35' W 122°21'0 0.0
2016-Sep-17 10:33N 47°35' W 122°21'0 0.0
2016-Sep-17 09:33N 47°35' W 122°21'0 0.0
2016-Sep-17 08:33N 47°35' W 122°21'0 0.0
2016-Sep-17 07:33N 47°35' W 122°21'0 0.0
2016-Sep-17 05:33N 47°35' W 122°21'0 0.0
2016-Sep-17 04:33N 47°35' W 122°21'0 0.0
2016-Sep-17 00:33N 47°35' W 122°21'0 0.0
2016-Sep-16 17:33N 47°35' W 122°21'0 0.0
2016-Sep-16 15:33N 47°35' W 122°21'0 0.0
2016-Sep-16 12:33N 47°35' W 122°21'0 0.0
2016-Sep-16 09:28N 47°35' W 122°21'0 0.0
2016-Sep-16 07:33N 47°35' W 122°21'0 0.0
2016-Sep-16 03:33N 47°35' W 122°21'1 0.5
2016-Sep-16 02:34N 47°35' W 122°21'2110.7
2016-Sep-16 00:33N 47°56' W 122°31'3215.9
2016-Sep-15 22:33N 48°11' W 123°12'1212.0
2016-Sep-15 21:34N 48°16' W 123°29'1212.0
2016-Sep-15 20:34N 48°24' W 123°15'2914.6
2016-Sep-15 18:34N 48°53' W 123°07'25 4.1
2016-Sep-15 12:31N 49°17' W 123°05'0 0.0
2016-Sep-15 11:31N 49°17' W 123°05'0 0.0
2016-Sep-15 04:31N 49°17' W 123°05'0 0.0
2016-Sep-15 03:31N 49°17' W 123°05'0 0.0
2016-Sep-15 01:31N 49°17' W 123°05'0 0.0
2016-Sep-14 22:31N 49°17' W 123°05'0 0.0
2016-Sep-14 21:31N 49°17' W 123°05'0 0.0
2016-Sep-14 17:31N 49°17' W 123°05'0 0.0
2016-Sep-14 16:32N 49°17' W 123°05'0 0.0
2016-Sep-14 13:31N 49°17' W 123°05'0 0.0
2016-Sep-14 12:31N 49°17' W 123°05'0 0.0
2016-Sep-14 10:31N 49°17' W 123°05'0 0.0
2016-Sep-14 09:31N 49°17' W 123°05'0 0.0
2016-Sep-14 08:28N 49°17' W 123°05'0 0.0
2016-Sep-14 07:31N 49°17' W 123°05'0 0.0
2016-Sep-14 06:31N 49°17' W 123°05'0 0.0
2016-Sep-14 03:31N 49°17' W 123°05'0 0.0
2016-Sep-13 22:31N 49°17' W 123°05'0 0.0
2016-Sep-13 20:31N 49°17' W 123°05'0 0.0
2016-Sep-13 18:32N 49°17' W 123°05'0 0.0
2016-Sep-13 17:32N 49°17' W 123°05'0 0.0
2016-Sep-13 16:31N 49°17' W 123°05'0 0.0
2016-Sep-13 11:31N 49°17' W 123°05'0 0.0
2016-Sep-13 09:31N 49°17' W 123°05'0 0.0
2016-Sep-13 07:31N 49°17' W 123°05'0 0.0
2016-Sep-13 06:28N 49°17' W 123°05'3 1.7
2016-Sep-13 04:33N 49°19' W 123°09'2713.3
2016-Sep-13 02:33N 48°53' W 123°04'4013.2
2016-Sep-12 23:33N 48°16' W 123°26'3216.1
2016-Sep-12 21:33N 48°20' W 124°15'3316.5
2016-Sep-12 19:33N 48°29' W 125°02'8015.9
2016-Sep-12 14:33N 48°29' W 127°03'1717.2
2016-Sep-12 13:33N 48°29' W 127°29'1717.1
2016-Sep-12 12:33N 48°29' W 127°54'1817.3
2016-Sep-12 11:32N 48°29' W 128°21'2517.7
2016-Sep-12 10:08N 48°29' W 128°58'  

Dump ship's entire track history